Flight Track Log - Related Links

Times and Time Zones

All times are in EDT time to prevent confusion due to time zone crossing. See the CSN3331 flight status page for this flight to view local times or setup timezone preferences in your user account.

Time Position Orientation Groundspeed Altitude Reporting Facility
EDT Latitude Longitude Course Direction KTS MPH feet Rate Location/Type
Sun 12:16:00 PM 23.3815 113.2182 262° West  Level Estimated
Sun 12:17:00 PM 23.3703 113.1364 262° West  Level Estimated
Sun 12:18:00 PM 23.3590 113.0545 262° West  Level Estimated
Sun 12:19:00 PM 23.3477 112.9727 261° West  Level Estimated
Sun 12:20:00 PM 23.3364 112.8909 261° West  Level Estimated
Sun 12:21:00 PM 23.3251 112.8091 261° West  Level Estimated
Sun 12:22:00 PM 23.3137 112.7273 261° West  Level Estimated
Sun 12:23:00 PM 23.3022 112.6456 261° West  Level Estimated
Sun 12:24:00 PM 23.2907 112.5638 261° West  Level Estimated
Sun 12:25:00 PM 23.2792 112.4821 261° West  Level Estimated
Sun 12:26:00 PM 23.2676 112.4003 261° West  Level Estimated
Sun 12:27:00 PM 23.2560 112.3186 261° West  Level Estimated
Sun 12:28:00 PM 23.2443 112.2369 261° West  Level Estimated
Sun 12:29:00 PM 23.2326 112.1553 261° West  Level Estimated
Sun 12:30:00 PM 23.2209 112.0736 261° West  Level Estimated
Sun 12:31:00 PM 23.2091 111.9920 261° West  Level Estimated
Sun 12:32:00 PM 23.1973 111.9103 261° West  Level Estimated
Sun 12:33:00 PM 23.1854 111.8287 261° West  Level Estimated
Sun 12:34:00 PM 23.1735 111.7471 261° West  Level Estimated
Sun 12:35:00 PM 23.1615 111.6655 261° West  Level Estimated
Sun 12:36:00 PM 23.1495 111.5839 261° West  Level Estimated
Sun 12:37:00 PM 23.1375 111.5023 261° West  Level Estimated
Sun 12:38:00 PM 23.1254 111.4208 261° West  Level Estimated
Sun 12:39:00 PM 23.1133 111.3393 261° West  Level Estimated
Sun 12:40:00 PM 23.1011 111.2577 261° West  Level Estimated
Sun 12:41:00 PM 23.0889 111.1762 261° West  Level Estimated
Sun 12:42:00 PM 23.0766 111.0947 261° West  Level Estimated
Sun 12:43:00 PM 23.0643 111.0133 261° West  Level Estimated
Sun 12:44:00 PM 23.0520 110.9318 261° West  Level Estimated
Sun 12:45:00 PM 23.0396 110.8504 261° West  Level Estimated
Sun 12:46:00 PM 23.0272 110.7689 261° West  Level Estimated
Sun 12:47:00 PM 23.0148 110.6875 261° West  Level Estimated
Sun 12:48:00 PM 23.0023 110.6061 261° West  Level Estimated
Sun 12:49:00 PM 22.9897 110.5247 261° West  Level Estimated
Sun 12:50:00 PM 22.9771 110.4434 260° West  Level Estimated
Sun 12:51:00 PM 22.9645 110.3620 260° West  Level Estimated
Sun 12:52:00 PM 22.9519 110.2807 260° West  Level Estimated
Sun 12:53:00 PM 22.9391 110.1993 260° West  Level Estimated
Sun 12:54:00 PM 22.9264 110.1180 260° West  Level Estimated
Sun 12:55:00 PM 22.9136 110.0367 260° West  Level Estimated
Sun 12:56:00 PM 22.9008 109.9555 260° West  Level Estimated
Sun 12:57:00 PM 22.8879 109.8742 260° West  Level Estimated
Sun 12:58:00 PM 22.8750 109.7930 260° West  Level Estimated
Sun 12:59:00 PM 22.8620 109.7117 260° West  Level Estimated
Sun 01:00:00 PM 22.8490 109.6305 260° West  Level Estimated
Sun 01:01:00 PM 22.8360 109.5493 260° West  Level Estimated
Sun 01:02:00 PM 22.8229 109.4681 260° West  Level Estimated
Sun 01:03:00 PM 22.8098 109.3869 260° West  Level Estimated
Sun 01:04:00 PM 22.7966 109.3058 260° West  Level Estimated
Sun 01:05:00 PM 22.7834 109.2246 260° West  Level Estimated
Sun 01:06:00 PM 22.7702 109.1435 260° West  Level Estimated
Sun 01:07:00 PM 22.7569 109.0624 260° West  Level Estimated
Sun 01:08:00 PM 22.7436 108.9813 260° West  Level Estimated
Sun 01:09:00 PM 22.7302 108.9003 260° West  Level Estimated
Sun 01:10:00 PM 22.7168 108.8192 260° West  Level Estimated
Sun 01:11:00 PM 22.7034 108.7382 260° West  Level Estimated
Sun 01:12:00 PM 22.6899 108.6571 260° West  Level Estimated
Sun 01:13:00 PM 22.6763 108.5761 260° West  Level Estimated

Login

Don't have an account? Register now (free) for customized features, flight alerts, and more!